sensor_id;sensor_type;location;lat;lon;timestamp;P1;durP1;ratioP1;P2;durP2;ratioP2
5678;SDS011;2862;52.560;13.566;2023-07-29T00:07:45;36.13;;;16.43;;
5678;SDS011;2862;52.560;13.566;2023-07-29T00:17:48;30.83;;;13.30;;
5678;SDS011;2862;52.560;13.566;2023-07-29T00:27:54;29.10;;;11.70;;
5678;SDS011;2862;52.560;13.566;2023-07-29T00:37:57;26.80;;;12.20;;
5678;SDS011;2862;52.560;13.566;2023-07-29T00:48:02;33.43;;;12.20;;
5678;SDS011;2862;52.560;13.566;2023-07-29T00:58:07;27.87;;;12.30;;
5678;SDS011;2862;52.560;13.566;2023-07-29T01:08:14;31.30;;;12.57;;
5678;SDS011;2862;52.560;13.566;2023-07-29T01:18:24;26.87;;;11.43;;
5678;SDS011;2862;52.560;13.566;2023-07-29T01:28:31;28.00;;;11.60;;
5678;SDS011;2862;52.560;13.566;2023-07-29T01:38:35;27.73;;;12.27;;
5678;SDS011;2862;52.560;13.566;2023-07-29T01:48:42;26.57;;;11.03;;
5678;SDS011;2862;52.560;13.566;2023-07-29T01:58:47;29.33;;;13.17;;
5678;SDS011;2862;52.560;13.566;2023-07-29T02:08:52;26.63;;;11.10;;
5678;SDS011;2862;52.560;13.566;2023-07-29T02:18:56;25.80;;;11.07;;
5678;SDS011;2862;52.560;13.566;2023-07-29T02:29:01;24.47;;;10.47;;
5678;SDS011;2862;52.560;13.566;2023-07-29T02:39:04;25.50;;;11.45;;
5678;SDS011;2862;52.560;13.566;2023-07-29T02:49:09;27.30;;;11.57;;
5678;SDS011;2862;52.560;13.566;2023-07-29T02:59:12;27.73;;;10.10;;
5678;SDS011;2862;52.560;13.566;2023-07-29T03:09:16;28.53;;;11.77;;
5678;SDS011;2862;52.560;13.566;2023-07-29T03:19:19;25.07;;;9.90;;
5678;SDS011;2862;52.560;13.566;2023-07-29T03:29:24;26.00;;;11.37;;
5678;SDS011;2862;52.560;13.566;2023-07-29T03:39:28;29.53;;;11.33;;
5678;SDS011;2862;52.560;13.566;2023-07-29T03:49:32;25.17;;;10.90;;
5678;SDS011;2862;52.560;13.566;2023-07-29T03:59:36;22.70;;;8.83;;
5678;SDS011;2862;52.560;13.566;2023-07-29T04:09:40;20.17;;;7.40;;
5678;SDS011;2862;52.560;13.566;2023-07-29T04:19:45;19.53;;;7.70;;
5678;SDS011;2862;52.560;13.566;2023-07-29T04:29:49;21.67;;;7.23;;
5678;SDS011;2862;52.560;13.566;2023-07-29T04:39:52;19.90;;;5.27;;
5678;SDS011;2862;52.560;13.566;2023-07-29T04:49:56;17.20;;;5.00;;
5678;SDS011;2862;52.560;13.566;2023-07-29T04:59:59;14.57;;;4.50;;
5678;SDS011;2862;52.560;13.566;2023-07-29T05:10:04;16.63;;;5.20;;
5678;SDS011;2862;52.560;13.566;2023-07-29T05:20:08;14.20;;;3.77;;
5678;SDS011;2862;52.560;13.566;2023-07-29T05:30:13;16.23;;;5.13;;
5678;SDS011;2862;52.560;13.566;2023-07-29T05:40:16;11.90;;;3.30;;
5678;SDS011;2862;52.560;13.566;2023-07-29T05:50:21;14.83;;;4.20;;
5678;SDS011;2862;52.560;13.566;2023-07-29T06:00:24;15.10;;;4.60;;
5678;SDS011;2862;52.560;13.566;2023-07-29T06:10:28;16.10;;;5.20;;
5678;SDS011;2862;52.560;13.566;2023-07-29T06:20:32;14.90;;;3.80;;
5678;SDS011;2862;52.560;13.566;2023-07-29T06:30:37;14.00;;;3.03;;
5678;SDS011;2862;52.560;13.566;2023-07-29T06:40:39;17.70;;;3.87;;
5678;SDS011;2862;52.560;13.566;2023-07-29T06:50:44;18.63;;;4.80;;
5678;SDS011;2862;52.560;13.566;2023-07-29T07:00:46;19.13;;;2.63;;
5678;SDS011;2862;52.560;13.566;2023-07-29T07:10:51;13.17;;;2.70;;
5678;SDS011;2862;52.560;13.566;2023-07-29T07:20:53;15.93;;;2.53;;
5678;SDS011;2862;52.560;13.566;2023-07-29T07:30:57;15.17;;;2.90;;
5678;SDS011;2862;52.560;13.566;2023-07-29T07:41:00;14.63;;;2.70;;
5678;SDS011;2862;52.560;13.566;2023-07-29T07:51:10;16.23;;;3.63;;
5678;SDS011;2862;52.560;13.566;2023-07-29T08:01:14;17.67;;;3.60;;
5678;SDS011;2862;52.560;13.566;2023-07-29T08:11:18;21.73;;;5.80;;
5678;SDS011;2862;52.560;13.566;2023-07-29T08:21:21;17.33;;;4.87;;
5678;SDS011;2862;52.560;13.566;2023-07-29T08:31:25;17.77;;;3.70;;
5678;SDS011;2862;52.560;13.566;2023-07-29T08:41:29;16.07;;;4.13;;
5678;SDS011;2862;52.560;13.566;2023-07-29T08:51:36;20.53;;;5.73;;
5678;SDS011;2862;52.560;13.566;2023-07-29T09:01:41;16.37;;;2.93;;
5678;SDS011;2862;52.560;13.566;2023-07-29T09:11:45;19.23;;;3.40;;
5678;SDS011;2862;52.560;13.566;2023-07-29T09:21:49;18.40;;;4.73;;
5678;SDS011;2862;52.560;13.566;2023-07-29T09:31:53;16.20;;;2.30;;
5678;SDS011;2862;52.560;13.566;2023-07-29T09:41:55;15.53;;;1.90;;
5678;SDS011;2862;52.560;13.566;2023-07-29T09:52:00;14.53;;;2.57;;
5678;SDS011;2862;52.560;13.566;2023-07-29T10:02:03;17.90;;;2.10;;
5678;SDS011;2862;52.560;13.566;2023-07-29T10:12:08;16.23;;;2.50;;
5678;SDS011;2862;52.560;13.566;2023-07-29T10:22:12;14.17;;;1.80;;
5678;SDS011;2862;52.560;13.566;2023-07-29T10:32:27;14.47;;;1.33;;
5678;SDS011;2862;52.560;13.566;2023-07-29T10:42:32;14.40;;;1.50;;
5678;SDS011;2862;52.560;13.566;2023-07-29T10:52:40;16.53;;;1.70;;
5678;SDS011;2862;52.560;13.566;2023-07-29T11:02:44;13.60;;;0.97;;
5678;SDS011;2862;52.560;13.566;2023-07-29T11:13:02;13.23;;;0.83;;
5678;SDS011;2862;52.560;13.566;2023-07-29T11:23:08;12.50;;;0.63;;
5678;SDS011;2862;52.560;13.566;2023-07-29T11:33:12;13.50;;;1.13;;
5678;SDS011;2862;52.560;13.566;2023-07-29T11:43:17;23.93;;;2.30;;
5678;SDS011;2862;52.560;13.566;2023-07-29T11:53:21;14.73;;;0.50;;
5678;SDS011;2862;52.560;13.566;2023-07-29T12:03:25;14.67;;;0.80;;
5678;SDS011;2862;52.560;13.566;2023-07-29T12:13:30;13.00;;;0.50;;
5678;SDS011;2862;52.560;13.566;2023-07-29T12:23:33;38.47;;;16.60;;
5678;SDS011;2862;52.560;13.566;2023-07-29T12:33:40;25.00;;;9.83;;
5678;SDS011;2862;52.560;13.566;2023-07-29T12:43:47;14.90;;;1.30;;
5678;SDS011;2862;52.560;13.566;2023-07-29T12:53:51;19.03;;;4.07;;
5678;SDS011;2862;52.560;13.566;2023-07-29T13:03:54;22.27;;;7.40;;
5678;SDS011;2862;52.560;13.566;2023-07-29T13:13:59;13.10;;;1.07;;
5678;SDS011;2862;52.560;13.566;2023-07-29T13:24:03;13.90;;;1.63;;
5678;SDS011;2862;52.560;13.566;2023-07-29T13:34:07;16.63;;;3.47;;
5678;SDS011;2862;52.560;13.566;2023-07-29T13:44:10;11.60;;;0.90;;
5678;SDS011;2862;52.560;13.566;2023-07-29T13:54:14;12.60;;;1.27;;
5678;SDS011;2862;52.560;13.566;2023-07-29T14:04:17;12.40;;;0.90;;
5678;SDS011;2862;52.560;13.566;2023-07-29T14:14:21;12.93;;;1.60;;
5678;SDS011;2862;52.560;13.566;2023-07-29T14:24:29;12.17;;;0.63;;
5678;SDS011;2862;52.560;13.566;2023-07-29T14:34:34;11.50;;;0.40;;
5678;SDS011;2862;52.560;13.566;2023-07-29T14:44:38;12.47;;;0.50;;
5678;SDS011;2862;52.560;13.566;2023-07-29T14:54:43;22.37;;;6.63;;
5678;SDS011;2862;52.560;13.566;2023-07-29T15:04:46;43.53;;;22.83;;
5678;SDS011;2862;52.560;13.566;2023-07-29T15:14:50;18.70;;;2.97;;
5678;SDS011;2862;52.560;13.566;2023-07-29T15:24:53;17.20;;;2.43;;
5678;SDS011;2862;52.560;13.566;2023-07-29T15:34:57;13.60;;;0.60;;
5678;SDS011;2862;52.560;13.566;2023-07-29T15:45:00;20.87;;;6.13;;
5678;SDS011;2862;52.560;13.566;2023-07-29T15:55:04;20.77;;;1.40;;
5678;SDS011;2862;52.560;13.566;2023-07-29T16:05:08;26.80;;;8.20;;
5678;SDS011;2862;52.560;13.566;2023-07-29T16:15:12;18.47;;;3.00;;
5678;SDS011;2862;52.560;13.566;2023-07-29T16:25:15;17.10;;;1.20;;
5678;SDS011;2862;52.560;13.566;2023-07-29T16:35:20;14.47;;;1.40;;
5678;SDS011;2862;52.560;13.566;2023-07-29T16:45:23;23.47;;;6.60;;
5678;SDS011;2862;52.560;13.566;2023-07-29T16:55:28;20.10;;;5.40;;
5678;SDS011;2862;52.560;13.566;2023-07-29T17:05:32;17.70;;;3.57;;
5678;SDS011;2862;52.560;13.566;2023-07-29T17:16:04;17.13;;;1.37;;
5678;SDS011;2862;52.560;13.566;2023-07-29T17:26:10;24.30;;;8.40;;
5678;SDS011;2862;52.560;13.566;2023-07-29T17:36:15;18.37;;;3.50;;
5678;SDS011;2862;52.560;13.566;2023-07-29T17:46:18;18.37;;;1.83;;
5678;SDS011;2862;52.560;13.566;2023-07-29T17:56:22;18.00;;;3.30;;
5678;SDS011;2862;52.560;13.566;2023-07-29T18:06:27;18.10;;;3.47;;
5678;SDS011;2862;52.560;13.566;2023-07-29T18:16:31;18.90;;;5.30;;
5678;SDS011;2862;52.560;13.566;2023-07-29T18:26:35;18.20;;;3.40;;
5678;SDS011;2862;52.560;13.566;2023-07-29T18:36:39;20.63;;;4.57;;
5678;SDS011;2862;52.560;13.566;2023-07-29T18:46:44;20.77;;;6.10;;
5678;SDS011;2862;52.560;13.566;2023-07-29T18:56:54;19.07;;;5.40;;
5678;SDS011;2862;52.560;13.566;2023-07-29T19:07:05;18.33;;;5.70;;
5678;SDS011;2862;52.560;13.566;2023-07-29T19:17:14;23.50;;;6.93;;
5678;SDS011;2862;52.560;13.566;2023-07-29T19:27:17;20.17;;;6.43;;
5678;SDS011;2862;52.560;13.566;2023-07-29T19:37:21;21.63;;;5.53;;
5678;SDS011;2862;52.560;13.566;2023-07-29T19:47:26;21.30;;;5.43;;
5678;SDS011;2862;52.560;13.566;2023-07-29T19:57:30;30.57;;;13.17;;
5678;SDS011;2862;52.560;13.566;2023-07-29T20:07:33;19.70;;;6.77;;
5678;SDS011;2862;52.560;13.566;2023-07-29T20:17:38;21.33;;;7.50;;
5678;SDS011;2862;52.560;13.566;2023-07-29T20:27:44;19.43;;;6.33;;
5678;SDS011;2862;52.560;13.566;2023-07-29T20:37:50;19.50;;;5.33;;
5678;SDS011;2862;52.560;13.566;2023-07-29T20:47:53;26.83;;;8.93;;
5678;SDS011;2862;52.560;13.566;2023-07-29T20:57:57;25.67;;;9.03;;
5678;SDS011;2862;52.560;13.566;2023-07-29T21:07:59;30.73;;;13.23;;
5678;SDS011;2862;52.560;13.566;2023-07-29T21:18:04;22.00;;;7.67;;
5678;SDS011;2862;52.560;13.566;2023-07-29T21:28:07;21.27;;;6.87;;
5678;SDS011;2862;52.560;13.566;2023-07-29T21:38:11;25.77;;;8.00;;
5678;SDS011;2862;52.560;13.566;2023-07-29T21:48:27;23.83;;;8.90;;
5678;SDS011;2862;52.560;13.566;2023-07-29T21:58:32;19.90;;;6.13;;
5678;SDS011;2862;52.560;13.566;2023-07-29T22:08:35;18.67;;;6.00;;
5678;SDS011;2862;52.560;13.566;2023-07-29T22:18:39;23.43;;;8.00;;
5678;SDS011;2862;52.560;13.566;2023-07-29T22:28:42;25.87;;;7.13;;
5678;SDS011;2862;52.560;13.566;2023-07-29T22:38:48;33.37;;;15.27;;
5678;SDS011;2862;52.560;13.566;2023-07-29T22:48:51;19.70;;;6.10;;
5678;SDS011;2862;52.560;13.566;2023-07-29T22:58:55;21.77;;;7.20;;
5678;SDS011;2862;52.560;13.566;2023-07-29T23:09:00;23.10;;;7.73;;
5678;SDS011;2862;52.560;13.566;2023-07-29T23:19:05;22.70;;;7.57;;
5678;SDS011;2862;52.560;13.566;2023-07-29T23:29:08;25.37;;;8.20;;
5678;SDS011;2862;52.560;13.566;2023-07-29T23:39:13;22.57;;;6.83;;
5678;SDS011;2862;52.560;13.566;2023-07-29T23:49:16;26.47;;;8.17;;
5678;SDS011;2862;52.560;13.566;2023-07-29T23:59:20;27.77;;;7.73;;
